Time;durP1;ratioP1;P1;durP2;ratioP2;P2;SDS_P1;SDS_P2;PMS_P1;PMS_P2;Temp;Humidity;BMP_temperature;BMP_pressure;BME280_temperature;BME280_humidity;BME280_pressure;Samples;Min_cycle;Max_cycle;Signal;HPM_P1;HPM_P2
2022/10/31 10:57:00;;;;;;;2.73;2.33;;;14.80;62.10;;;;;;5092330;27;1603056;-71
2022/10/31 10:59:26;;;;;;;2.60;1.92;;;15.50;63.80;;;;;;5090768;28;20055;-71
2022/10/31 11:01:52;;;;;;;2.20;2.00;;;15.50;64.20;;;;;;5090712;28;20031;-72
2022/10/31 11:04:36;;;;;;;2.45;1.67;;;15.60;64.10;;;;;;5090423;28;20037;-71
2022/10/31 11:07:06;;;;;;;2.95;1.90;;;15.70;63.60;;;;;;5090860;28;20028;-72
2022/10/31 11:09:33;;;;;;;2.50;2.00;;;15.70;63.80;;;;;;5080155;28;20044;-71
2022/10/31 11:12:05;;;;;;;2.10;1.90;;;15.80;63.70;;;;;;5069050;28;20036;-72
2022/10/31 11:14:31;;;;;;;2.55;1.83;;;15.80;63.50;;;;;;5070061;28;20033;-72
2022/10/31 11:17:42;;;;;;;2.03;1.88;;;15.90;63.40;;;;;;5070611;28;20028;-72
2022/10/31 11:20:11;;;;;;;1.70;1.60;;;15.90;62.80;;;;;;5064507;28;20037;-72
2022/10/31 11:22:37;;;;;;;2.20;2.00;;;15.90;63.00;;;;;;5070251;28;20477;-75
2022/10/31 11:25:20;;;;;;;1.65;1.55;;;16.00;62.90;;;;;;5069694;28;20029;-74
2022/10/31 11:28:01;;;;;;;1.80;1.70;;;16.00;62.40;;;;;;5068890;28;20545;-75
2022/10/31 11:30:27;;;;;;;1.75;1.65;;;16.00;62.30;;;;;;5069870;28;20036;-76
2022/10/31 11:32:52;;;;;;;1.55;1.45;;;16.00;62.50;;;;;;5068449;28;20025;-75
2022/10/31 11:35:21;;;;;;;2.20;1.80;;;16.10;62.50;;;;;;5069485;28;20131;-75
2022/10/31 11:37:49;;;;;;;1.85;1.60;;;16.10;62.30;;;;;;5069722;28;20112;-76
2022/10/31 11:40:24;;;;;;;2.00;1.80;;;16.10;62.20;;;;;;5069802;28;20021;-77
2022/10/31 11:42:52;;;;;;;1.95;1.45;;;16.10;62.00;;;;;;5068563;28;20028;-76
2022/10/31 11:45:38;;;;;;;1.58;1.48;;;16.10;62.00;;;;;;5069823;28;20359;-77
2022/10/31 11:48:17;;;;;;;1.63;1.52;;;16.10;61.60;;;;;;5069432;28;20037;-76
2022/10/31 11:50:49;;;;;;;1.40;1.30;;;16.10;61.60;;;;;;5068388;28;20033;-76
2022/10/31 11:53:18;;;;;;;1.83;1.40;;;16.10;61.80;;;;;;5069894;28;20032;-79
2022/10/31 11:55:45;;;;;;;1.50;1.40;;;16.20;61.70;;;;;;5064079;28;20542;-76
2022/10/31 11:58:23;;;;;;;1.60;1.50;;;16.20;61.60;;;;;;5055169;28;20045;-75
2022/10/31 12:00:51;;;;;;;1.98;1.60;;;16.20;61.50;;;;;;5056017;28;20033;-76
2022/10/31 12:03:23;;;;;;;2.25;1.50;;;16.20;61.50;;;;;;5056297;28;20025;-76
2022/10/31 12:06:02;;;;;;;2.08;1.83;;;16.20;61.40;;;;;;5056014;28;20405;-77
2022/10/31 12:08:33;;;;;;;1.50;1.40;;;16.20;61.20;;;;;;5056100;28;20514;-77
2022/10/31 12:11:10;;;;;;;1.58;1.48;;;16.20;61.30;;;;;;5055206;28;20104;-76
2022/10/31 12:14:14;;;;;;;1.88;1.77;;;16.20;61.10;;;;;;5055947;28;20021;-77
2022/10/31 12:17:14;;;;;;;1.52;1.42;;;16.20;60.80;;;;;;5055801;28;20040;-76
2022/10/31 12:20:19;;;;;;;1.92;1.48;;;16.20;60.80;;;;;;5055593;28;20458;-76
2022/10/31 12:22:56;;;;;;;1.40;1.20;;;16.20;60.70;;;;;;5056490;28;20025;-78
2022/10/31 12:25:41;;;;;;;1.52;1.42;;;16.10;60.90;;;;;;5055568;28;20064;-76
2022/10/31 12:28:25;;;;;;;1.48;1.38;;;16.20;60.60;;;;;;5055561;28;20493;-75
2022/10/31 12:31:12;;;;;;;1.50;1.40;;;16.20;60.60;;;;;;5055391;28;20424;-76
2022/10/31 12:33:53;;;;;;;1.40;1.30;;;16.20;60.80;;;;;;5055581;28;20100;-76
2022/10/31 12:36:37;;;;;;;1.60;1.50;;;16.20;60.80;;;;;;5054400;28;20477;-77
2022/10/31 12:39:25;;;;;;;1.65;1.30;;;16.20;60.60;;;;;;5055708;28;20151;-76
2022/10/31 12:42:08;;;;;;;1.67;1.50;;;16.20;60.70;;;;;;5055875;28;20053;-77
2022/10/31 12:44:58;;;;;;;1.60;1.50;;;16.10;60.50;;;;;;5055970;28;20033;-76
